Aviation Digital Data Service (ADDS)

Output produced by METARs form (0455 UTC 16 February 2019)
found at http://www.aviationweather.gov/metar/data/
 
METAR text: HEAX 160400Z 19007KT 9999 SCT020 SCT022 10/08 Q1018 NOSIG
Conditions at: HEAX (ALEXANDRIA/NOUZH, EG) observed 0400 UTC 16 February 2019
Temperature: 10.0°C (50°F)
Dewpoint: 8.0°C (46°F) [RH = 87%]
Pressure (altimeter): 30.06 inches Hg (1018.0 mb)
Winds: from the S (190 degrees) at 8 MPH (7 knots; 3.6 m/s)
Visibility: 6 or more miles (10+ km)
Ceiling: at least 12,000 feet AGL
Clouds: scattered clouds at 2000 feet AGL
scattered clouds at 2200 feet AGL
Weather: no significant weather observed at this time

METAR text: HEAX 160300Z 15004KT 9999 SCT020 SCT022 10/08 Q1018 NOSIG
Conditions at: HEAX (ALEXANDRIA/NOUZH, EG) observed 0300 UTC 16 February 2019
Temperature: 10.0°C (50°F)
Dewpoint: 8.0°C (46°F) [RH = 87%]
Pressure (altimeter): 30.06 inches Hg (1018.0 mb)
Winds: from the SSE (150 degrees) at 5 MPH (4 knots; 2.1 m/s)
Visibility: 6 or more miles (10+ km)
Ceiling: at least 12,000 feet AGL
Clouds: scattered clouds at 2000 feet AGL
scattered clouds at 2200 feet AGL
Weather: no significant weather observed at this time

METAR text: HEAX 160200Z 18004KT 9999 SCT020 SCT022 10/09 Q1017 NOSIG
Conditions at: HEAX (ALEXANDRIA/NOUZH, EG) observed 0200 UTC 16 February 2019
Temperature: 10.0°C (50°F)
Dewpoint: 9.0°C (48°F) [RH = 93%]
Pressure (altimeter): 30.03 inches Hg (1017.0 mb)
Winds: from the S (180 degrees) at 5 MPH (4 knots; 2.1 m/s)
Visibility: 6 or more miles (10+ km)
Ceiling: at least 12,000 feet AGL
Clouds: scattered clouds at 2000 feet AGL
scattered clouds at 2200 feet AGL
Weather: no significant weather observed at this time

METAR text: HEAX 160100Z 17005KT 9999 SCT020 SCT022 10/09 Q1017 NOSIG
Conditions at: HEAX (ALEXANDRIA/NOUZH, EG) observed 0100 UTC 16 February 2019
Temperature: 10.0°C (50°F)
Dewpoint: 9.0°C (48°F) [RH = 93%]
Pressure (altimeter): 30.03 inches Hg (1017.0 mb)
Winds: from the S (170 degrees) at 6 MPH (5 knots; 2.6 m/s)
Visibility: 6 or more miles (10+ km)
Ceiling: at least 12,000 feet AGL
Clouds: scattered clouds at 2000 feet AGL
scattered clouds at 2200 feet AGL
Weather: no significant weather observed at this time

METAR text: HEAX 160000Z 20009KT 9999 SCT020 SCT022 11/09 Q1017 RESHRA NOSIG
Conditions at: HEAX (ALEXANDRIA/NOUZH, EG) observed 0000 UTC 16 February 2019
Temperature: 11.0°C (52°F)
Dewpoint: 9.0°C (48°F) [RH = 87%]
Pressure (altimeter): 30.03 inches Hg (1017.0 mb)
Winds: from the SSW (200 degrees) at 10 MPH (9 knots; 4.6 m/s)
Visibility: 6 or more miles (10+ km)
Ceiling: at least 12,000 feet AGL
Clouds: scattered clouds at 2000 feet AGL
scattered clouds at 2200 feet AGL
Weather: no significant weather observed at this time

METAR text: HEAX 152300Z 34009KT 9999 SCT020 SCT022 12/09 Q1017 NOSIG
Conditions at: HEAX (ALEXANDRIA/NOUZH, EG) observed 2300 UTC 15 February 2019
Temperature: 12.0°C (54°F)
Dewpoint: 9.0°C (48°F) [RH = 82%]
Pressure (altimeter): 30.03 inches Hg (1017.0 mb)
Winds: from the NNW (340 degrees) at 10 MPH (9 knots; 4.6 m/s)
Visibility: 6 or more miles (10+ km)
Ceiling: at least 12,000 feet AGL
Clouds: scattered clouds at 2000 feet AGL
scattered clouds at 2200 feet AGL
Weather: no significant weather observed at this time

METAR text: HEAX 152200Z 23010KT 9999 SCT020 SCT022 12/09 Q1017 NOSIG
Conditions at: HEAX (ALEXANDRIA/NOUZH, EG) observed 2200 UTC 15 February 2019
Temperature: 12.0°C (54°F)
Dewpoint: 9.0°C (48°F) [RH = 82%]
Pressure (altimeter): 30.03 inches Hg (1017.0 mb)
Winds: from the SW (230 degrees) at 12 MPH (10 knots; 5.1 m/s)
Visibility: 6 or more miles (10+ km)
Ceiling: at least 12,000 feet AGL
Clouds: scattered clouds at 2000 feet AGL
scattered clouds at 2200 feet AGL
Weather: no significant weather observed at this time

METAR text: HEAX 152100Z 07006KT 9999 SCT020 SCT022 14/07 Q1017
Conditions at: HEAX (ALEXANDRIA/NOUZH, EG) observed 2100 UTC 15 February 2019
Temperature: 14.0°C (57°F)
Dewpoint: 7.0°C (45°F) [RH = 63%]
Pressure (altimeter): 30.03 inches Hg (1017.0 mb)
Winds: from the ENE (70 degrees) at 7 MPH (6 knots; 3.1 m/s)
Visibility: 6 or more miles (10+ km)
Ceiling: at least 12,000 feet AGL
Clouds: scattered clouds at 2000 feet AGL
scattered clouds at 2200 feet AGL
Weather: no significant weather observed at this time

METAR text: HEAX 152000Z 28008KT 9999 SCT020 SCT022 13/07 Q1017 NOSIG
Conditions at: HEAX (ALEXANDRIA/NOUZH, EG) observed 2000 UTC 15 February 2019
Temperature: 13.0°C (55°F)
Dewpoint: 7.0°C (45°F) [RH = 67%]
Pressure (altimeter): 30.03 inches Hg (1017.0 mb)
Winds: from the W (280 degrees) at 9 MPH (8 knots; 4.1 m/s)
Visibility: 6 or more miles (10+ km)
Ceiling: at least 12,000 feet AGL
Clouds: scattered clouds at 2000 feet AGL
scattered clouds at 2200 feet AGL
Weather: no significant weather observed at this time

METAR text: HEAX 151900Z 28009KT 9999 SCT020 SCT022 13/07 Q1016 NOSIG
Conditions at: HEAX (ALEXANDRIA/NOUZH, EG) observed 1900 UTC 15 February 2019
Temperature: 13.0°C (55°F)
Dewpoint: 7.0°C (45°F) [RH = 67%]
Pressure (altimeter): 30.00 inches Hg (1016.0 mb)
Winds: from the W (280 degrees) at 10 MPH (9 knots; 4.6 m/s)
Visibility: 6 or more miles (10+ km)
Ceiling: at least 12,000 feet AGL
Clouds: scattered clouds at 2000 feet AGL
scattered clouds at 2200 feet AGL
Weather: no significant weather observed at this time

METAR text: HEAX 151800Z 29012KT 9999 SCT020 SCT022 13/08 Q1016 NOSIG
Conditions at: HEAX (ALEXANDRIA/NOUZH, EG) observed 1800 UTC 15 February 2019
Temperature: 13.0°C (55°F)
Dewpoint: 8.0°C (46°F) [RH = 72%]
Pressure (altimeter): 30.00 inches Hg (1016.0 mb)
Winds: from the WNW (290 degrees) at 14 MPH (12 knots; 6.2 m/s)
Visibility: 6 or more miles (10+ km)
Ceiling: at least 12,000 feet AGL
Clouds: scattered clouds at 2000 feet AGL
scattered clouds at 2200 feet AGL
Weather: no significant weather observed at this time

METAR text: HEAX 151700Z 28009KT 9999 SCT020 SCT022 13/10 Q1015 NOSIG
Conditions at: HEAX (ALEXANDRIA/NOUZH, EG) observed 1700 UTC 15 February 2019
Temperature: 13.0°C (55°F)
Dewpoint: 10.0°C (50°F) [RH = 82%]
Pressure (altimeter): 29.97 inches Hg (1015.0 mb)
Winds: from the W (280 degrees) at 10 MPH (9 knots; 4.6 m/s)
Visibility: 6 or more miles (10+ km)
Ceiling: at least 12,000 feet AGL
Clouds: scattered clouds at 2000 feet AGL
scattered clouds at 2200 feet AGL
Weather: no significant weather observed at this time

METAR text: HEAX 151600Z 28011KT 9999 SCT020 SCT022 12/11 Q1015 NOSIG
Conditions at: HEAX (ALEXANDRIA/NOUZH, EG) observed 1600 UTC 15 February 2019
Temperature: 12.0°C (54°F)
Dewpoint: 11.0°C (52°F) [RH = 94%]
Pressure (altimeter): 29.97 inches Hg (1015.0 mb)
Winds: from the W (280 degrees) at 13 MPH (11 knots; 5.7 m/s)
Visibility: 6 or more miles (10+ km)
Ceiling: at least 12,000 feet AGL
Clouds: scattered clouds at 2000 feet AGL
scattered clouds at 2200 feet AGL
Weather: no significant weather observed at this time

METAR text: HEAX 151500Z 30009KT 9999 SCT020 SCT022 15/09 Q1014 NOSIG
Conditions at: HEAX (ALEXANDRIA/NOUZH, EG) observed 1500 UTC 15 February 2019
Temperature: 15.0°C (59°F)
Dewpoint: 9.0°C (48°F) [RH = 67%]
Pressure (altimeter): 29.94 inches Hg (1014.0 mb)
Winds: from the WNW (300 degrees) at 10 MPH (9 knots; 4.6 m/s)
Visibility: 6 or more miles (10+ km)
Ceiling: at least 12,000 feet AGL
Clouds: scattered clouds at 2000 feet AGL
scattered clouds at 2200 feet AGL
Weather: no significant weather observed at this time

METAR text: HEAX 151400Z 30009KT 9999 SCT020 SCT022 15/10 Q1013 NOSIG
Conditions at: HEAX (ALEXANDRIA/NOUZH, EG) observed 1400 UTC 15 February 2019
Temperature: 15.0°C (59°F)
Dewpoint: 10.0°C (50°F) [RH = 72%]
Pressure (altimeter): 29.91 inches Hg (1013.0 mb)
Winds: from the WNW (300 degrees) at 10 MPH (9 knots; 4.6 m/s)
Visibility: 6 or more miles (10+ km)
Ceiling: at least 12,000 feet AGL
Clouds: scattered clouds at 2000 feet AGL
scattered clouds at 2200 feet AGL
Weather: no significant weather observed at this time

METAR text: HEAX 151300Z 30010KT 9999 SCT020 SCT022 16/11 Q101)1902151302 E)CNL. NEW NOTAM TO FLW.)
Conditions at: HEAX (ALEXANDRIA/NOUZH, EG) observed 1300 UTC 15 February 2019
Temperature: 16.0°C (61°F)
Dewpoint: 11.0°C (52°F) [RH = 72%]
Pressure (altimeter): missing
Winds: from the WNW (300 degrees) at 12 MPH (10 knots; 5.1 m/s)
Visibility: 6 or more miles (10+ km)
Ceiling: at least 12,000 feet AGL
Clouds: scattered clouds at 2000 feet AGL
scattered clouds at 2200 feet AGL
Weather: no significant weather observed at this time

METAR text: HEAX 151200Z 30011KT 9999 SCT020 SCT100 16/11 Q1012 NOSIG
Conditions at: HEAX (ALEXANDRIA/NOUZH, EG) observed 1200 UTC 15 February 2019
Temperature: 16.0°C (61°F)
Dewpoint: 11.0°C (52°F) [RH = 72%]
Pressure (altimeter): 29.88 inches Hg (1012.0 mb)
Winds: from the WNW (300 degrees) at 13 MPH (11 knots; 5.7 m/s)
Visibility: 6 or more miles (10+ km)
Ceiling: at least 12,000 feet AGL
Clouds: scattered clouds at 2000 feet AGL
scattered clouds at 10000 feet AGL
Weather: no significant weather observed at this time

METAR text: HEAX 151000Z 23012KT 9999 SCT020 SCT100 12/10 Q101E TEMPORARILY IN NEW POSITION: COORDINATE 445752.0N 0085814.8E ELEV 112M AMSL REF AIP ENR 4.1.1-9)
Conditions at: HEAX (ALEXANDRIA/NOUZH, EG) observed 1000 UTC 15 February 2019
Temperature: 12.0°C (54°F)
Dewpoint: 10.0°C (50°F) [RH = 88%]
Pressure (altimeter): missing
Winds: from the SW (230 degrees) at 14 MPH (12 knots; 6.2 m/s)
Visibility: 6 or more miles (10+ km)
Ceiling: at least 12,000 feet AGL
Clouds: scattered clouds at 2000 feet AGL
scattered clouds at 10000 feet AGL
Weather: no significant weather observed at this time

METAR text: HEAX 150900Z 22012KT 9999 SCT020 SCT100 12/10 Q1013 RESHRA NOSIG
Conditions at: HEAX (ALEXANDRIA/NOUZH, EG) observed 0900 UTC 15 February 2019
Temperature: 12.0°C (54°F)
Dewpoint: 10.0°C (50°F) [RH = 88%]
Pressure (altimeter): 29.91 inches Hg (1013.0 mb)
Winds: from the SW (220 degrees) at 14 MPH (12 knots; 6.2 m/s)
Visibility: 6 or more miles (10+ km)
Ceiling: at least 12,000 feet AGL
Clouds: scattered clouds at 2000 feet AGL
scattered clouds at 10000 feet AGL
Weather: no significant weather observed at this time

METAR text: HEAX 150500Z 21008KT 9999 SCT020 SCT022 08/06 Q1011 NOSIG
Conditions at: HEAX (ALEXANDRIA/NOUZH, EG) observed 0500 UTC 15 February 2019
Temperature: 8.0°C (46°F)
Dewpoint: 6.0°C (43°F) [RH = 87%]
Pressure (altimeter): 29.85 inches Hg (1011.0 mb)
Winds: from the SSW (210 degrees) at 9 MPH (8 knots; 4.1 m/s)
Visibility: 6 or more miles (10+ km)
Ceiling: at least 12,000 feet AGL
Clouds: scattered clouds at 2000 feet AGL
scattered clouds at 2200 feet AGL
Weather: no significant weather observed at this time

METAR text: HEAX 150200Z 21013KT 9999 SCT020 10/06 Q1010 NOSIG
Conditions at: HEAX (ALEXANDRIA/NOUZH, EG) observed 0200 UTC 15 February 2019
Temperature: 10.0°C (50°F)
Dewpoint: 6.0°C (43°F) [RH = 76%]
Pressure (altimeter): 29.82 inches Hg (1010.0 mb)
Winds: from the SSW (210 degrees) at 15 MPH (13 knots; 6.7 m/s)
Visibility: 6 or more miles (10+ km)
Ceiling: at least 12,000 feet AGL
Clouds: scattered clouds at 2000 feet AGL
Weather: no significant weather observed at this time

METAR text: HEAX 142300Z 21014KT 9999 SCT020 10/06 Q1010 NOSIG
Conditions at: HEAX (ALEXANDRIA/NOUZH, EG) observed 2300 UTC 14 February 2019
Temperature: 10.0°C (50°F)
Dewpoint: 6.0°C (43°F) [RH = 76%]
Pressure (altimeter): 29.82 inches Hg (1010.0 mb)
Winds: from the SSW (210 degrees) at 16 MPH (14 knots; 7.2 m/s)
Visibility: 6 or more miles (10+ km)
Ceiling: at least 12,000 feet AGL
Clouds: scattered clouds at 2000 feet AGL
Weather: no significant weather observed at this time

METAR text: HEAX 142200Z 22015KT 9999 SCT020 10/05 Q1011 NOSIG
Conditions at: HEAX (ALEXANDRIA/NOUZH, EG) observed 2200 UTC 14 February 2019
Temperature: 10.0°C (50°F)
Dewpoint: 5.0°C (41°F) [RH = 71%]
Pressure (altimeter): 29.85 inches Hg (1011.0 mb)
Winds: from the SW (220 degrees) at 17 MPH (15 knots; 7.7 m/s)
Visibility: 6 or more miles (10+ km)
Ceiling: at least 12,000 feet AGL
Clouds: scattered clouds at 2000 feet AGL
Weather: no significant weather observed at this time

METAR text: HEAX 142100Z 20010KT 9999 SCT020 09/05 Q1011 NOSIG
Conditions at: HEAX (ALEXANDRIA/NOUZH, EG) observed 2100 UTC 14 February 2019
Temperature: 9.0°C (48°F)
Dewpoint: 5.0°C (41°F) [RH = 76%]
Pressure (altimeter): 29.85 inches Hg (1011.0 mb)
Winds: from the SSW (200 degrees) at 12 MPH (10 knots; 5.1 m/s)
Visibility: 6 or more miles (10+ km)
Ceiling: at least 12,000 feet AGL
Clouds: scattered clouds at 2000 feet AGL
Weather: no significant weather observed at this time

METAR text: HEAX 142000Z 22012KT 9999 SCT020 10/04 Q1011 NOSIG
Conditions at: HEAX (ALEXANDRIA/NOUZH, EG) observed 2000 UTC 14 February 2019
Temperature: 10.0°C (50°F)
Dewpoint: 4.0°C (39°F) [RH = 66%]
Pressure (altimeter): 29.85 inches Hg (1011.0 mb)
Winds: from the SW (220 degrees) at 14 MPH (12 knots; 6.2 m/s)
Visibility: 6 or more miles (10+ km)
Ceiling: at least 12,000 feet AGL
Clouds: scattered clouds at 2000 feet AGL
Weather: no significant weather observed at this time

METAR text: HEAX 141900Z 21016KT 9999 FEW020 11/04 Q1011 NOSIG
Conditions at: HEAX (ALEXANDRIA/NOUZH, EG) observed 1900 UTC 14 February 2019
Temperature: 11.0°C (52°F)
Dewpoint: 4.0°C (39°F) [RH = 62%]
Pressure (altimeter): 29.85 inches Hg (1011.0 mb)
Winds: from the SSW (210 degrees) at 18 MPH (16 knots; 8.2 m/s)
Visibility: 6 or more miles (10+ km)
Ceiling: at least 12,000 feet AGL
Clouds: few clouds at 2000 feet AGL
Weather: no significant weather observed at this time

METAR text: HEAX 141800Z 23020KT 6000 SCT020 12/04 Q1011 NOSIG
Conditions at: HEAX (ALEXANDRIA/NOUZH, EG) observed 1800 UTC 14 February 2019
Temperature: 12.0°C (54°F)
Dewpoint: 4.0°C (39°F) [RH = 58%]
Pressure (altimeter): 29.85 inches Hg (1011.0 mb)
Winds: from the SW (230 degrees) at 23 MPH (20 knots; 10.3 m/s)
Visibility: 4 miles ( 6 km)
Ceiling: at least 12,000 feet AGL
Clouds: scattered clouds at 2000 feet AGL
Weather: no significant weather observed at this time

METAR text: HEAX 141700Z 24016KT 6000 SCT020 SCT100 13/05 Q1011 NOSIG
Conditions at: HEAX (ALEXANDRIA/NOUZH, EG) observed 1700 UTC 14 February 2019
Temperature: 13.0°C (55°F)
Dewpoint: 5.0°C (41°F) [RH = 58%]
Pressure (altimeter): 29.85 inches Hg (1011.0 mb)
Winds: from the WSW (240 degrees) at 18 MPH (16 knots; 8.2 m/s)
Visibility: 4 miles ( 6 km)
Ceiling: at least 12,000 feet AGL
Clouds: scattered clouds at 2000 feet AGL
scattered clouds at 10000 feet AGL
Weather: no significant weather observed at this time

Forecast for: HEAX (ALEXANDRIA/NOUZH, EG)
Text: TAF HEAX 160004Z 2418/2524 33012KT 9999 SCT020
Forecast period: 1800 UTC 24 February 2019 to 0000 UTC 26 February 2019
Forecast type: FROM: standard forecast or significant change
Winds: from the NNW (330 degrees) at 14 MPH (12 knots; 6.2 m/s)
Visibility: 6 or more miles 10+ km)
Ceiling: at least 12,000 feet AGL
Clouds: scattered clouds at 2000 feet AGL
Weather: no significant weather forecast for this period
Text: TEMPO 2418/2424 7000 -RA BKN020
Forecast period: 1800 UTC 24 February 2019 to 0000 UTC 25 February 2019
Forecast type: TEMPORARY: The following changes expected for less than half the time period
Visibility: 4 miles (7 km)
Ceiling: 2000 feet AGL
Clouds: broken clouds at 2000 feet AGL
Weather: -RA  (light rain)